Time;durP1;ratioP1;P1;durP2;ratioP2;P2;SDS_P1;SDS_P2;PMS_P1;PMS_P2;Temp;Humidity;BMP_temperature;BMP_pressure;BME280_temperature;BME280_humidity;BME280_pressure;Samples;Min_cycle;Max_cycle;Signal;HPM_P1;HPM_P2
2021/05/18 00:00:40;;;;;;;7.40;2.63;;;15.00;76.30;;;;;;5048153;28;20043;-59
2021/05/18 00:03:06;;;;;;;11.73;2.40;;;14.90;76.30;;;;;;5064536;28;20032;-59
2021/05/18 00:05:32;;;;;;;6.13;2.20;;;14.90;76.30;;;;;;5066636;28;20020;-59
2021/05/18 00:08:04;;;;;;;5.75;1.98;;;14.90;76.30;;;;;;5047406;28;20459;-60
2021/05/18 00:13:22;;;;;;;4.03;1.73;;;14.90;76.50;;;;;;5065985;28;20051;-59
2021/05/18 00:15:48;;;;;;;5.13;1.95;;;14.80;76.50;;;;;;5060545;28;20561;-59
2021/05/18 00:18:13;;;;;;;6.18;1.60;;;14.80;76.60;;;;;;5062122;28;20032;-59
2021/05/18 00:20:39;;;;;;;5.43;1.70;;;14.80;76.80;;;;;;5057269;28;20132;-59
2021/05/18 00:23:05;;;;;;;3.35;1.80;;;14.80;76.80;;;;;;5060161;28;20103;-61
2021/05/18 00:25:31;;;;;;;3.28;1.70;;;14.80;77.00;;;;;;5055803;28;20404;-62
2021/05/18 00:27:57;;;;;;;4.82;1.58;;;14.70;77.00;;;;;;5049493;28;20028;-62
2021/05/18 00:30:22;;;;;;;6.00;2.42;;;14.70;77.20;;;;;;5054880;28;20836;-61
2021/05/18 00:32:48;;;;;;;5.45;1.80;;;14.70;77.20;;;;;;5062222;28;20468;-62
2021/05/18 00:35:14;;;;;;;5.43;1.83;;;14.70;77.30;;;;;;5065457;28;20020;-62
2021/05/18 00:37:39;;;;;;;2.42;1.85;;;14.70;77.20;;;;;;5045499;28;20032;-62
2021/05/18 00:40:07;;;;;;;3.63;1.80;;;14.70;77.20;;;;;;5064268;28;20130;-61
2021/05/18 00:42:32;;;;;;;11.18;2.35;;;14.70;77.30;;;;;;5060149;28;20036;-61
2021/05/18 00:44:58;;;;;;;4.47;2.33;;;14.60;77.30;;;;;;5066012;28;20571;-62
2021/05/18 00:47:23;;;;;;;4.28;2.10;;;14.60;77.40;;;;;;5066579;28;20431;-61
2021/05/18 00:49:49;;;;;;;7.75;2.08;;;14.60;77.40;;;;;;5067811;28;20033;-61
2021/05/18 00:52:15;;;;;;;7.78;2.38;;;14.60;78.10;;;;;;5065839;28;20029;-62
2021/05/18 00:54:53;;;;;;;3.50;2.00;;;14.60;77.30;;;;;;5051436;28;20032;-62
2021/05/18 01:00:05;;;;;;;7.30;2.30;;;14.60;77.40;;;;;;5054531;28;20035;-60
2021/05/18 01:02:31;;;;;;;5.07;1.90;;;14.60;77.40;;;;;;5066350;28;20036;-61
2021/05/18 01:05:07;;;;;;;6.22;2.13;;;14.60;77.50;;;;;;5066728;28;20035;-60
2021/05/18 01:07:34;;;;;;;4.13;1.70;;;14.60;77.50;;;;;;5066789;28;20044;-60
2021/05/18 01:09:59;;;;;;;3.38;2.00;;;14.50;77.60;;;;;;5068034;28;20035;-61
2021/05/18 01:12:25;;;;;;;7.22;2.13;;;14.50;77.60;;;;;;5066620;28;20025;-60
2021/05/18 01:14:50;;;;;;;7.13;1.90;;;14.50;77.70;;;;;;5067564;28;20025;-59
2021/05/18 01:17:16;;;;;;;5.80;2.08;;;14.50;77.60;;;;;;5064025;28;20020;-60
2021/05/18 01:19:41;;;;;;;4.72;1.98;;;14.50;77.70;;;;;;5052440;28;20472;-60
2021/05/18 01:22:07;;;;;;;5.90;1.90;;;14.50;77.70;;;;;;5065216;28;20040;-60
2021/05/18 01:24:34;;;;;;;5.50;2.17;;;14.50;77.70;;;;;;5065841;28;20052;-60
2021/05/18 01:26:59;;;;;;;4.72;2.10;;;14.50;77.90;;;;;;5063897;28;20096;-60
2021/05/18 01:29:25;;;;;;;5.93;1.88;;;14.50;77.90;;;;;;5064748;28;20036;-60
2021/05/18 01:31:51;;;;;;;3.38;2.03;;;14.40;77.80;;;;;;5065493;28;20028;-60
2021/05/18 01:34:16;;;;;;;5.60;1.70;;;14.40;77.80;;;;;;5068753;28;20035;-60
2021/05/18 01:36:42;;;;;;;5.13;2.08;;;14.40;77.80;;;;;;5065378;28;20028;-60
2021/05/18 01:44:22;;;;;;;2.78;1.70;;;14.40;78.10;;;;;;5070895;28;20040;-60
2021/05/18 01:46:48;;;;;;;3.85;1.90;;;14.40;78.10;;;;;;5071183;28;20380;-59
2021/05/18 01:49:16;;;;;;;5.97;1.60;;;14.40;78.20;;;;;;5071346;28;20025;-60
2021/05/18 01:51:46;;;;;;;6.50;1.95;;;14.30;78.20;;;;;;5053154;28;20111;-60
2021/05/18 01:54:17;;;;;;;3.75;1.60;;;14.30;78.20;;;;;;5063778;28;20043;-60
2021/05/18 01:56:58;;;;;;;2.97;1.40;;;14.30;78.20;;;;;;5062701;28;20029;-60
2021/05/18 01:59:24;;;;;;;3.60;1.85;;;14.30;78.30;;;;;;5046218;28;20174;-60
2021/05/18 02:01:52;;;;;;;5.75;1.58;;;14.30;78.30;;;;;;5066293;28;20107;-60
2021/05/18 02:04:34;;;;;;;1.75;1.42;;;14.30;78.40;;;;;;5058640;28;20086;-60
2021/05/18 02:07:05;;;;;;;4.32;1.67;;;14.30;78.40;;;;;;5062902;28;20035;-59
2021/05/18 02:09:30;;;;;;;3.08;1.98;;;14.30;78.50;;;;;;5063034;28;20013;-60
2021/05/18 02:11:56;;;;;;;2.85;1.67;;;14.20;78.50;;;;;;5067487;28;20065;-60
2021/05/18 02:14:32;;;;;;;3.15;1.67;;;14.20;78.50;;;;;;5064298;28;20024;-60
2021/05/18 02:17:07;;;;;;;2.10;1.40;;;14.20;78.60;;;;;;5069895;28;20095;-60
2021/05/18 02:25:21;;;;;;;4.20;1.50;;;14.20;78.80;;;;;;5048208;28;20138;-60
2021/05/18 02:27:47;;;;;;;3.65;1.75;;;14.20;78.80;;;;;;5068956;28;20028;-60
2021/05/18 02:30:14;;;;;;;2.65;1.45;;;14.20;78.70;;;;;;5067409;28;20044;-60
2021/05/18 02:32:39;;;;;;;2.22;1.40;;;14.20;78.70;;;;;;5068358;28;20058;-60
2021/05/18 02:35:06;;;;;;;3.08;1.55;;;14.10;78.80;;;;;;5068477;28;20036;-60
2021/05/18 02:37:32;;;;;;;4.10;1.40;;;14.10;78.70;;;;;;5067146;28;20032;-60
2021/05/18 02:39:57;;;;;;;1.83;1.25;;;14.10;78.80;;;;;;5067895;28;20032;-60
2021/05/18 02:42:23;;;;;;;3.10;1.50;;;14.10;78.80;;;;;;5067796;28;20114;-60
2021/05/18 02:45:03;;;;;;;3.83;1.52;;;14.20;78.90;;;;;;5067854;28;20544;-60
2021/05/18 02:50:13;;;;;;;2.13;1.40;;;14.10;78.90;;;;;;5065606;28;20095;-60
2021/05/18 02:52:40;;;;;;;1.90;1.50;;;14.10;79.00;;;;;;5065998;28;20021;-60
2021/05/18 02:55:08;;;;;;;3.83;1.83;;;14.10;79.00;;;;;;5067658;28;20025;-60
2021/05/18 02:57:34;;;;;;;3.50;1.80;;;14.10;79.10;;;;;;5067479;28;20117;-60
2021/05/18 03:00:01;;;;;;;4.88;1.85;;;14.00;79.10;;;;;;5069047;28;20055;-60
2021/05/18 03:02:27;;;;;;;3.10;1.60;;;14.00;79.10;;;;;;5067946;28;20070;-60
2021/05/18 03:04:52;;;;;;;3.35;2.00;;;14.00;79.10;;;;;;5062235;28;20037;-60
2021/05/18 03:07:18;;;;;;;2.10;1.50;;;14.00;79.10;;;;;;5061802;28;20017;-60
2021/05/18 03:09:43;;;;;;;2.80;1.90;;;14.00;79.30;;;;;;5065178;28;20075;-60
2021/05/18 03:12:09;;;;;;;2.70;1.70;;;14.00;79.30;;;;;;5060678;28;20159;-60
2021/05/18 03:14:34;;;;;;;2.28;1.50;;;14.00;79.40;;;;;;5062456;28;20437;-60
2021/05/18 03:17:01;;;;;;;2.47;1.65;;;13.90;79.40;;;;;;5060498;28;20103;-60
2021/05/18 03:19:27;;;;;;;2.70;1.38;;;14.00;79.50;;;;;;5066610;28;20029;-60
2021/05/18 03:21:52;;;;;;;1.92;1.27;;;13.90;79.50;;;;;;5064252;28;20094;-59
2021/05/18 03:24:18;;;;;;;2.63;1.40;;;14.00;79.50;;;;;;5061104;28;20468;-60
2021/05/18 03:26:46;;;;;;;3.53;1.60;;;13.90;79.60;;;;;;5062853;28;20064;-60
2021/05/18 03:29:33;;;;;;;3.00;1.40;;;13.90;79.60;;;;;;5059345;28;20113;-60
2021/05/18 03:34:42;;;;;;;2.03;1.40;;;13.90;79.60;;;;;;5060064;28;20100;-60
2021/05/18 03:39:39;;;;;;;3.83;1.42;;;13.90;79.60;;;;;;5062262;28;20040;-60
2021/05/18 03:42:09;;;;;;;4.00;1.35;;;13.90;79.70;;;;;;5063555;28;20024;-60
2021/05/18 03:52:31;;;;;;;2.45;1.20;;;13.80;80.00;;;;;;5064928;28;20038;-60
2021/05/18 03:58:35;;;;;;;2.95;1.40;;;13.80;80.00;;;;;;5065040;28;20032;-60
2021/05/18 04:17:10;;;;;;;17.00;1.90;;;13.80;79.90;;;;;;5068272;28;20032;-59
2021/05/18 04:19:39;;;;;;;11.75;1.80;;;13.80;79.90;;;;;;5061584;28;20021;-60
2021/05/18 04:41:05;;;;;;;48.75;6.25;;;13.80;80.10;;;;;;5057006;28;20098;-60
2021/05/18 04:51:52;;;;;;;154.30;12.82;;;13.70;80.30;;;;;;5060316;28;20041;-60
2021/05/18 04:59:53;;;;;;;177.57;13.20;;;13.70;80.40;;;;;;5065314;28;20059;-60
2021/05/18 05:08:08;;;;;;;171.80;14.18;;;13.70;80.40;;;;;;5062794;28;20059;-60
2021/05/18 05:15:38;;;;;;;163.75;12.20;;;13.70;80.40;;;;;;5063286;28;20686;-60
2021/05/18 05:18:03;;;;;;;124.60;12.02;;;13.70;80.40;;;;;;5061981;28;20042;-60
2021/05/18 05:20:29;;;;;;;128.32;11.68;;;14.10;80.70;;;;;;5062638;28;20060;-60
2021/05/18 05:22:55;;;;;;;118.55;10.40;;;13.70;80.40;;;;;;5048024;28;20017;-60
2021/05/18 05:25:21;;;;;;;82.07;8.52;;;13.70;80.60;;;;;;5059994;28;20047;-60
2021/05/18 05:27:46;;;;;;;100.95;10.05;;;13.70;80.60;;;;;;5059047;28;20117;-60
2021/05/18 05:30:12;;;;;;;110.32;9.02;;;13.70;80.40;;;;;;5062381;28;20400;-60
2021/05/18 05:32:38;;;;;;;89.53;8.88;;;13.70;80.60;;;;;;5066676;28;20380;-60
2021/05/18 05:35:04;;;;;;;72.35;9.13;;;13.70;80.70;;;;;;5069033;28;20024;-60
2021/05/18 05:37:29;;;;;;;79.95;7.28;;;13.70;80.80;;;;;;5063102;28;20500;-60
2021/05/18 05:39:55;;;;;;;81.63;7.72;;;13.70;80.80;;;;;;5066498;28;20033;-60
2021/05/18 05:42:21;;;;;;;70.47;6.95;;;13.70;81.10;;;;;;5054771;28;20041;-62
2021/05/18 05:44:47;;;;;;;74.90;6.43;;;13.70;81.30;;;;;;5062629;28;20031;-62
2021/05/18 05:47:12;;;;;;;53.92;6.78;;;13.70;81.10;;;;;;5070361;28;20016;-63
2021/05/18 05:49:38;;;;;;;54.15;5.15;;;13.70;81.00;;;;;;5069465;28;20052;-63
2021/05/18 05:52:05;;;;;;;59.30;4.97;;;13.70;81.10;;;;;;5066648;28;20029;-63
2021/05/18 05:54:31;;;;;;;70.90;6.30;;;13.70;81.10;;;;;;5061835;28;20515;-60
2021/05/18 05:56:56;;;;;;;53.67;5.03;;;13.70;81.00;;;;;;5047211;28;20400;-60
2021/05/18 05:59:22;;;;;;;35.00;4.53;;;13.70;81.00;;;;;;5054331;28;20032;-60
2021/05/18 06:01:47;;;;;;;26.42;4.05;;;13.70;81.10;;;;;;5058508;28;20044;-60
2021/05/18 06:04:13;;;;;;;44.50;5.00;;;13.70;81.20;;;;;;5066979;28;20035;-60
2021/05/18 06:06:39;;;;;;;43.22;4.65;;;13.70;81.20;;;;;;5061915;28;20482;-60
2021/05/18 06:09:05;;;;;;;45.28;5.35;;;13.70;81.20;;;;;;5068807;28;20037;-60
2021/05/18 06:17:17;;;;;;;35.08;4.70;;;13.70;81.20;;;;;;5054968;28;20388;-60
2021/05/18 06:49:57;;;;;;;20.70;2.60;;;13.90;80.80;;;;;;5067799;28;20090;-61
2021/05/18 06:52:22;;;;;;;20.73;2.45;;;13.90;80.90;;;;;;5063172;28;20013;-60
2021/05/18 06:54:48;;;;;;;25.75;2.97;;;14.00;81.50;;;;;;5062458;28;20028;-60
2021/05/18 06:57:13;;;;;;;29.58;3.45;;;14.00;80.80;;;;;;5060297;28;20028;-60
2021/05/18 07:02:23;;;;;;;24.05;3.55;;;14.00;80.80;;;;;;5055486;28;20051;-62
2021/05/18 07:04:52;;;;;;;14.80;2.30;;;14.00;80.70;;;;;;5063469;28;20021;-60
2021/05/18 07:07:21;;;;;;;15.02;2.40;;;14.10;80.70;;;;;;5062612;28;20024;-60
2021/05/18 07:09:46;;;;;;;13.73;2.25;;;14.00;80.60;;;;;;5058903;28;20202;-60
2021/05/18 07:12:12;;;;;;;13.40;1.48;;;14.00;80.60;;;;;;5061318;28;20104;-60
2021/05/18 07:14:37;;;;;;;9.95;1.35;;;14.00;80.70;;;;;;5059951;28;20028;-60
2021/05/18 07:17:03;;;;;;;8.40;1.23;;;14.00;80.70;;;;;;5065079;28;20411;-60
2021/05/18 07:19:28;;;;;;;9.00;1.48;;;14.00;80.80;;;;;;5062583;28;20066;-60
2021/05/18 07:21:54;;;;;;;13.15;1.55;;;13.90;80.80;;;;;;5061619;28;20040;-60
2021/05/18 07:24:24;;;;;;;16.23;1.95;;;13.90;80.80;;;;;;5063194;28;20492;-60
2021/05/18 07:26:50;;;;;;;31.15;4.28;;;13.90;80.70;;;;;;5062163;28;20033;-60
2021/05/18 07:29:16;;;;;;;16.23;2.80;;;13.90;80.90;;;;;;5061795;28;20104;-60
2021/05/18 07:31:42;;;;;;;16.27;2.00;;;13.90;81.20;;;;;;5066246;28;20534;-60
2021/05/18 07:34:07;;;;;;;31.23;3.15;;;13.90;81.50;;;;;;5064968;28;20033;-60
2021/05/18 07:36:33;;;;;;;30.42;2.67;;;13.90;81.60;;;;;;5057445;28;20032;-60
2021/05/18 07:38:58;;;;;;;27.15;3.30;;;13.80;81.80;;;;;;5059896;28;20281;-60
2021/05/18 07:41:24;;;;;;;12.73;2.25;;;13.80;81.90;;;;;;5047497;28;20611;-60
2021/05/18 07:43:49;;;;;;;7.90;1.50;;;13.80;81.90;;;;;;5059711;28;20036;-59
2021/05/18 07:46:20;;;;;;;17.83;1.88;;;13.80;82.00;;;;;;5065510;28;20108;-59
2021/05/18 07:49:08;;;;;;;28.88;2.30;;;13.80;82.10;;;;;;5062716;28;20028;-60
2021/05/18 07:59:15;;;;;;;20.00;2.45;;;13.80;82.30;;;;;;5056886;28;20043;-60
2021/05/18 08:02:30;;;;;;;36.10;3.70;;;13.80;82.30;;;;;;5060768;28;20056;-60
2021/05/18 08:07:40;;;;;;;19.58;2.80;;;13.90;82.80;;;;;;5061391;28;20392;-60
2021/05/18 08:12:41;;;;;;;16.93;2.00;;;13.90;82.70;;;;;;5063948;28;20040;-59
2021/05/18 08:17:41;;;;;;;27.92;2.55;;;13.90;82.60;;;;;;5061024;28;20079;-62
2021/05/18 08:56:54;;;;;;;39.08;3.70;;;14.00;82.80;;;;;;5050419;28;20046;-60
2021/05/18 10:15:02;;;;;;;57.50;6.63;;;15.00;79.80;;;;;;5052714;28;20093;-60
2021/05/18 10:36:38;;;;;;;53.33;5.32;;;15.20;78.70;;;;;;5064734;28;20628;-61
2021/05/18 10:39:15;;;;;;;56.30;5.78;;;15.20;78.50;;;;;;5061912;28;20438;-61
2021/05/18 10:41:41;;;;;;;65.32;7.28;;;15.20;78.10;;;;;;5045020;28;20029;-61
2021/05/18 10:44:07;;;;;;;34.10;4.32;;;15.20;77.70;;;;;;5059080;28;20029;-59
2021/05/18 10:46:53;;;;;;;57.33;5.93;;;15.20;77.90;;;;;;5056607;28;20024;-61
2021/05/18 10:49:31;;;;;;;74.57;7.80;;;15.30;77.60;;;;;;5058402;28;20032;-61
2021/05/18 10:52:01;;;;;;;64.93;6.25;;;15.30;77.30;;;;;;5059818;28;20024;-60
2021/05/18 10:54:39;;;;;;;63.42;6.00;;;15.30;77.00;;;;;;5058946;28;20064;-61
2021/05/18 10:57:21;;;;;;;50.10;4.50;;;15.40;77.10;;;;;;5055848;28;20079;-61
2021/05/18 10:59:51;;;;;;;77.50;6.35;;;15.40;77.20;;;;;;5056957;28;20559;-61
2021/05/18 11:02:33;;;;;;;59.97;6.32;;;15.40;77.00;;;;;;5043362;28;20358;-61
2021/05/18 11:05:00;;;;;;;52.90;5.35;;;15.50;76.70;;;;;;5056366;28;20032;-61
2021/05/18 11:07:28;;;;;;;42.38;4.90;;;15.50;76.40;;;;;;5054171;28;20025;-61
2021/05/18 11:09:54;;;;;;;56.95;6.32;;;15.60;76.60;;;;;;5060403;28;20033;-60
2021/05/18 11:12:21;;;;;;;55.25;7.03;;;15.60;76.20;;;;;;5057913;28;20025;-60
2021/05/18 11:14:47;;;;;;;35.03;4.47;;;15.60;76.10;;;;;;5057858;28;20420;-61
2021/05/18 11:17:33;;;;;;;60.75;7.30;;;15.60;76.40;;;;;;5060568;28;20630;-61
2021/05/18 11:20:09;;;;;;;42.88;5.78;;;15.60;76.60;;;;;;5057441;28;20049;-60
2021/05/18 11:25:36;;;;;;;33.55;4.50;;;15.60;76.90;;;;;;5059837;28;20066;-61
2021/05/18 11:28:10;;;;;;;20.50;3.72;;;15.60;76.80;;;;;;5058162;28;20136;-61
2021/05/18 11:30:36;;;;;;;23.30;3.20;;;15.60;76.60;;;;;;5063342;28;20147;-60
2021/05/18 11:33:02;;;;;;;14.75;2.83;;;15.70;76.50;;;;;;5053343;28;20736;-61
2021/05/18 11:35:27;;;;;;;26.67;2.92;;;15.70;76.50;;;;;;5055125;28;20654;-61
2021/05/18 11:38:04;;;;;;;20.15;2.85;;;15.60;76.30;;;;;;5049672;28;20041;-61
2021/05/18 11:40:29;;;;;;;15.13;2.70;;;15.70;76.30;;;;;;5058080;28;20021;-61
2021/05/18 11:42:55;;;;;;;18.55;3.00;;;15.70;76.20;;;;;;5043066;28;20385;-61
2021/05/18 11:45:21;;;;;;;19.20;3.03;;;15.70;76.10;;;;;;5054671;28;20036;-61
2021/05/18 11:47:47;;;;;;;16.35;2.50;;;15.80;75.60;;;;;;5057229;28;20024;-61
2021/05/18 11:50:17;;;;;;;13.57;2.85;;;15.90;75.80;;;;;;5051427;28;20564;-61
2021/05/18 11:52:42;;;;;;;28.20;2.97;;;15.90;74.90;;;;;;5056800;28;20020;-62
2021/05/18 11:55:18;;;;;;;22.42;2.90;;;16.00;74.80;;;;;;5053180;28;20028;-61
2021/05/18 11:57:44;;;;;;;20.95;2.70;;;16.10;74.60;;;;;;5051942;28;20167;-61
2021/05/18 12:00:30;;;;;;;25.70;2.83;;;16.20;74.30;;;;;;5052755;28;20111;-61
2021/05/18 12:03:06;;;;;;;15.98;2.30;;;16.30;74.00;;;;;;5057460;28;20639;-61
2021/05/18 12:05:32;;;;;;;15.95;3.00;;;16.30;73.30;;;;;;5057581;28;20047;-60
2021/05/18 12:07:58;;;;;;;19.85;2.28;;;16.40;73.10;;;;;;5052601;28;20020;-61
2021/05/18 12:10:33;;;;;;;17.17;2.50;;;16.50;73.00;;;;;;5055347;28;20025;-60
2021/05/18 12:13:00;;;;;;;25.35;3.33;;;16.50;72.40;;;;;;5057601;28;20020;-60
2021/05/18 12:15:26;;;;;;;20.20;2.67;;;16.60;72.40;;;;;;5043049;28;20064;-61
2021/05/18 12:17:53;;;;;;;27.92;3.55;;;16.60;72.20;;;;;;5052274;28;20110;-61
2021/05/18 12:20:18;;;;;;;24.75;3.42;;;16.70;71.70;;;;;;5059951;28;20051;-61
2021/05/18 12:22:44;;;;;;;25.42;3.58;;;16.80;71.40;;;;;;5060101;28;20040;-60
2021/05/18 12:25:10;;;;;;;19.00;2.85;;;16.90;70.80;;;;;;5061926;28;20667;-61
2021/05/18 12:27:45;;;;;;;19.05;2.08;;;16.90;71.00;;;;;;5053709;28;20053;-61
2021/05/18 12:30:11;;;;;;;24.17;3.60;;;17.00;70.80;;;;;;5051212;28;20476;-61
2021/05/18 12:32:45;;;;;;;25.27;3.20;;;17.10;70.40;;;;;;5059965;28;20039;-61
2021/05/18 12:35:22;;;;;;;19.48;2.95;;;17.10;70.60;;;;;;5051245;28;20538;-60
2021/05/18 12:37:49;;;;;;;25.80;2.90;;;17.10;70.00;;;;;;5057896;28;20309;-61
2021/05/18 12:40:29;;;;;;;46.22;4.82;;;17.20;70.30;;;;;;5056834;28;20032;-61
2021/05/18 12:43:06;;;;;;;44.40;4.72;;;17.30;69.60;;;;;;5055087;28;20025;-61
2021/05/18 12:45:31;;;;;;;40.85;3.75;;;17.30;69.20;;;;;;5057220;28;20115;-61
2021/05/18 12:47:59;;;;;;;40.47;4.10;;;17.20;69.20;;;;;;5058919;28;20120;-61
2021/05/18 12:50:40;;;;;;;53.65;7.00;;;17.50;69.50;;;;;;5061303;28;20020;-61
2021/05/18 12:53:06;;;;;;;36.90;4.50;;;17.60;68.60;;;;;;5044525;28;20522;-61
2021/05/18 12:55:32;;;;;;;60.92;7.00;;;17.70;68.80;;;;;;5057741;28;20040;-61
2021/05/18 12:58:05;;;;;;;40.67;4.63;;;17.80;68.80;;;;;;5060324;28;20036;-61
2021/05/18 13:00:36;;;;;;;36.88;4.75;;;17.90;68.50;;;;;;5048453;28;20024;-61
2021/05/18 13:03:11;;;;;;;37.25;4.70;;;17.90;69.00;;;;;;5063988;28;20032;-61
2021/05/18 13:05:37;;;;;;;38.13;4.50;;;17.90;68.90;;;;;;5066174;28;20024;-61
2021/05/18 13:08:13;;;;;;;45.88;4.38;;;17.90;69.10;;;;;;5045224;28;20029;-62
2021/05/18 13:13:28;;;;;;;33.05;3.75;;;17.90;70.20;;;;;;5047865;28;20032;-62
2021/05/18 13:16:09;;;;;;;32.40;4.20;;;17.90;69.50;;;;;;5061759;28;20040;-61
2021/05/18 13:18:38;;;;;;;29.15;3.78;;;18.00;70.20;;;;;;5053609;28;20055;-61
2021/05/18 13:21:03;;;;;;;36.97;4.85;;;18.00;70.20;;;;;;5058505;28;20056;-61
2021/05/18 13:23:34;;;;;;;36.05;5.13;;;18.10;69.50;;;;;;5055368;28;21193;-61
2021/05/18 13:28:44;;;;;;;34.30;4.43;;;18.20;68.60;;;;;;5056905;28;20125;-61
2021/05/18 13:31:10;;;;;;;37.67;4.40;;;18.50;68.80;;;;;;5052307;28;20461;-62
2021/05/18 13:33:35;;;;;;;43.47;4.25;;;18.30;67.40;;;;;;5055553;28;20028;-61
2021/05/18 13:36:01;;;;;;;29.40;4.30;;;18.40;67.30;;;;;;5039139;28;20036;-62
2021/05/18 13:38:27;;;;;;;72.32;5.78;;;18.40;67.80;;;;;;5055276;28;20031;-61
2021/05/18 13:40:52;;;;;;;126.75;13.25;;;18.50;66.90;;;;;;5039972;28;20159;-61
2021/05/18 13:43:18;;;;;;;77.13;6.68;;;18.50;66.90;;;;;;5052039;28;20407;-61
2021/05/18 13:45:45;;;;;;;64.57;6.97;;;18.60;66.50;;;;;;5053831;28;20175;-61
2021/05/18 13:48:10;;;;;;;65.15;7.68;;;18.70;66.40;;;;;;5035832;28;20109;-61
2021/05/18 13:50:38;;;;;;;45.10;5.78;;;18.70;65.00;;;;;;5060199;28;20470;-62
2021/05/18 13:53:04;;;;;;;54.35;6.07;;;18.80;65.90;;;;;;5062315;28;20016;-61
2021/05/18 13:55:30;;;;;;;48.72;6.32;;;18.80;65.80;;;;;;5042964;28;20037;-61
2021/05/18 13:57:56;;;;;;;65.28;6.13;;;18.90;65.40;;;;;;5054895;28;20514;-61
2021/05/18 14:00:21;;;;;;;55.67;7.10;;;18.90;65.30;;;;;;5060136;28;20071;-61
2021/05/18 14:02:47;;;;;;;44.10;7.13;;;18.90;64.90;;;;;;5060415;28;20025;-61
2021/05/18 14:05:18;;;;;;;71.93;8.55;;;18.90;64.90;;;;;;5060051;28;20058;-61
2021/05/18 14:10:51;;;;;;;77.45;8.23;;;19.00;64.60;;;;;;5062173;28;20040;-61
2021/05/18 14:13:17;;;;;;;71.97;7.05;;;19.00;64.10;;;;;;5043523;28;20147;-61
2021/05/18 14:15:43;;;;;;;101.70;8.13;;;19.00;64.30;;;;;;5059125;28;20078;-61
2021/05/18 14:18:10;;;;;;;61.80;7.85;;;19.10;64.00;;;;;;5054680;28;20457;-61
2021/05/18 14:20:36;;;;;;;65.18;8.40;;;19.10;64.00;;;;;;5041544;28;20073;-61
2021/05/18 14:23:01;;;;;;;78.97;10.60;;;19.20;64.40;;;;;;5060071;28;20174;-61
2021/05/18 14:25:27;;;;;;;90.35;8.32;;;19.20;64.00;;;;;;5056761;28;20514;-61
2021/05/18 14:27:52;;;;;;;92.40;10.00;;;19.30;63.60;;;;;;5059383;28;20695;-61
2021/05/18 14:30:18;;;;;;;65.93;7.22;;;19.30;63.40;;;;;;5028442;28;20020;-61
2021/05/18 14:32:43;;;;;;;75.07;7.57;;;19.40;63.00;;;;;;5059439;28;20083;-61
2021/05/18 14:35:11;;;;;;;82.32;8.07;;;19.50;63.20;;;;;;5057499;28;20038;-61
2021/05/18 14:37:37;;;;;;;72.55;7.55;;;19.50;62.00;;;;;;5058734;28;20025;-62
2021/05/18 14:45:27;;;;;;;58.63;6.85;;;19.70;62.00;;;;;;5053302;28;20060;-61
2021/05/18 14:56:01;;;;;;;72.18;8.63;;;20.10;60.90;;;;;;5057899;28;20486;-61
2021/05/18 14:58:26;;;;;;;73.10;8.65;;;20.20;60.80;;;;;;5060004;28;20025;-61
2021/05/18 15:00:52;;;;;;;77.35;8.07;;;20.30;60.70;;;;;;5057529;28;20774;-62
2021/05/18 15:03:17;;;;;;;94.22;8.88;;;20.20;60.30;;;;;;5055495;28;20118;-61
2021/05/18 15:05:43;;;;;;;77.15;9.48;;;20.30;60.40;;;;;;5036387;28;20669;-61
2021/05/18 15:08:09;;;;;;;84.75;8.35;;;20.30;60.40;;;;;;5049765;28;20554;-60
2021/05/18 15:10:35;;;;;;;79.38;8.23;;;20.30;60.40;;;;;;5052155;28;20811;-61
2021/05/18 15:13:01;;;;;;;97.55;9.18;;;20.30;60.70;;;;;;5055335;28;20017;-60
2021/05/18 15:15:27;;;;;;;87.55;9.77;;;20.40;60.60;;;;;;5057840;28;21708;-61
2021/05/18 15:17:55;;;;;;;78.47;8.73;;;20.40;60.70;;;;;;5054759;28;20759;-61
2021/05/18 15:20:21;;;;;;;77.32;8.75;;;20.40;60.60;;;;;;5042942;28;20072;-61
2021/05/18 15:22:46;;;;;;;75.68;9.00;;;20.50;60.40;;;;;;5058243;28;20135;-61
2021/05/18 15:25:12;;;;;;;112.30;10.52;;;20.50;60.60;;;;;;5030167;28;20512;-61
2021/05/18 15:27:37;;;;;;;86.45;8.70;;;20.50;60.50;;;;;;5049975;28;20095;-62
2021/05/18 15:30:07;;;;;;;95.93;9.63;;;20.50;60.70;;;;;;5036634;28;20753;-62
2021/05/18 15:32:32;;;;;;;113.65;13.10;;;20.50;60.50;;;;;;5007233;28;20086;-62
2021/05/18 15:34:58;;;;;;;74.57;9.02;;;20.60;60.20;;;;;;5019418;28;20048;-62
2021/05/18 15:37:23;;;;;;;131.32;12.75;;;20.70;60.90;;;;;;5038961;28;20027;-61
2021/05/18 15:39:49;;;;;;;100.80;10.95;;;20.80;59.70;;;;;;5034156;28;20090;-61
2021/05/18 15:42:14;;;;;;;99.35;11.52;;;20.90;59.70;;;;;;5047616;28;20096;-61
2021/05/18 15:44:40;;;;;;;144.40;13.48;;;21.10;59.40;;;;;;5034565;28;20064;-62
2021/05/18 15:47:05;;;;;;;106.80;13.35;;;21.30;58.90;;;;;;5055116;28;20036;-61
2021/05/18 15:49:31;;;;;;;115.85;10.35;;;21.40;59.30;;;;;;5030692;28;20054;-61
2021/05/18 15:51:57;;;;;;;119.28;12.63;;;21.50;58.50;;;;;;5049525;28;20068;-61
2021/05/18 15:54:22;;;;;;;125.57;12.88;;;21.60;58.20;;;;;;5074448;28;20028;-61
2021/05/18 15:56:48;;;;;;;138.55;14.75;;;21.60;58.80;;;;;;5039243;28;20418;-61
2021/05/18 15:59:13;;;;;;;146.05;14.70;;;21.70;58.80;;;;;;5059651;28;20033;-61
2021/05/18 16:01:39;;;;;;;99.28;11.75;;;21.70;59.10;;;;;;5055713;28;20040;-62
2021/05/18 16:04:06;;;;;;;107.15;12.75;;;21.70;58.90;;;;;;5066261;28;20033;-62
2021/05/18 16:06:33;;;;;;;109.00;13.93;;;21.80;58.90;;;;;;5063456;28;20106;-62
2021/05/18 16:08:59;;;;;;;127.82;12.35;;;21.80;58.70;;;;;;5058295;28;20028;-61
2021/05/18 16:11:24;;;;;;;112.57;11.52;;;21.80;58.70;;;;;;5069880;28;21712;-61
2021/05/18 16:13:50;;;;;;;118.10;11.23;;;21.80;58.70;;;;;;5068036;28;20028;-63
2021/05/18 16:16:16;;;;;;;147.38;16.73;;;21.80;58.20;;;;;;5044463;28;20028;-61
2021/05/18 16:18:42;;;;;;;96.95;12.18;;;21.90;57.70;;;;;;5048678;28;20464;-63
2021/05/18 16:21:08;;;;;;;130.52;13.40;;;22.00;57.90;;;;;;5036818;28;20052;-61
2021/05/18 16:23:35;;;;;;;149.73;17.25;;;22.00;57.60;;;;;;5059907;28;20074;-62
2021/05/18 16:26:02;;;;;;;156.85;16.30;;;22.10;57.00;;;;;;5036594;28;20032;-62
2021/05/18 16:28:28;;;;;;;133.00;16.23;;;22.20;57.30;;;;;;5045282;28;20539;-61
2021/05/18 16:30:53;;;;;;;166.70;17.52;;;22.40;57.20;;;;;;5065247;28;20056;-61
2021/05/18 16:33:19;;;;;;;128.35;12.80;;;22.30;56.90;;;;;;5067098;28;20036;-62
2021/05/18 16:35:44;;;;;;;175.88;16.83;;;22.30;57.20;;;;;;5032563;28;20059;-61
2021/05/18 16:38:10;;;;;;;242.18;19.75;;;22.20;56.60;;;;;;5047257;28;20021;-62
2021/05/18 16:40:35;;;;;;;122.07;13.57;;;22.10;56.90;;;;;;5063291;28;20550;-63
2021/05/18 16:43:01;;;;;;;101.53;12.32;;;22.10;57.60;;;;;;5051938;28;20673;-62
2021/05/18 16:45:27;;;;;;;158.95;17.38;;;22.00;57.30;;;;;;5049027;28;20541;-63
2021/05/18 16:47:52;;;;;;;131.27;15.18;;;21.90;57.10;;;;;;5058887;28;20096;-59
2021/05/18 16:50:18;;;;;;;153.20;16.33;;;21.80;57.30;;;;;;5055584;28;20627;-60
2021/05/18 16:52:43;;;;;;;214.52;21.85;;;21.80;57.30;;;;;;5025614;28;20037;-60
2021/05/18 16:55:10;;;;;;;133.75;14.57;;;21.80;57.40;;;;;;5042635;28;20523;-61
2021/05/18 16:57:35;;;;;;;131.60;14.38;;;21.80;57.20;;;;;;5044826;28;20043;-62
2021/05/18 17:00:02;;;;;;;157.73;18.02;;;21.80;57.50;;;;;;5031236;28;20123;-60
2021/05/18 17:02:28;;;;;;;160.75;14.65;;;21.80;57.30;;;;;;5059310;28;20041;-60
2021/05/18 17:04:54;;;;;;;184.77;18.27;;;21.70;57.30;;;;;;5025336;28;20700;-60
2021/05/18 17:07:20;;;;;;;187.48;18.02;;;21.70;57.10;;;;;;5058900;28;20123;-61
2021/05/18 17:09:45;;;;;;;213.85;19.67;;;21.70;57.20;;;;;;5057688;28;20052;-60
2021/05/18 17:12:11;;;;;;;200.90;20.52;;;21.60;57.20;;;;;;5036514;28;20108;-60
2021/05/18 17:14:36;;;;;;;185.25;18.02;;;21.50;57.30;;;;;;5067702;28;20075;-61
2021/05/18 17:17:02;;;;;;;195.82;19.73;;;21.60;57.30;;;;;;5041801;28;20035;-60
2021/05/18 17:19:27;;;;;;;209.30;21.88;;;21.50;57.30;;;;;;5042021;28;20428;-60
2021/05/18 17:21:53;;;;;;;180.73;17.85;;;21.40;57.20;;;;;;5070974;28;20491;-63
2021/05/18 17:24:18;;;;;;;219.23;22.30;;;21.40;57.20;;;;;;5069565;28;20102;-63
2021/05/18 17:26:44;;;;;;;178.48;18.42;;;21.40;57.30;;;;;;5050570;28;20399;-63
2021/05/18 17:29:11;;;;;;;211.82;20.17;;;21.30;57.10;;;;;;5054672;28;20024;-63
2021/05/18 17:31:37;;;;;;;177.05;15.77;;;21.30;57.30;;;;;;5067302;28;20024;-63
2021/05/18 17:34:03;;;;;;;151.55;17.70;;;21.20;57.10;;;;;;5054479;28;20115;-61
2021/05/18 17:36:28;;;;;;;211.80;22.35;;;21.20;57.10;;;;;;5048886;28;20040;-60
2021/05/18 17:38:55;;;;;;;214.63;19.70;;;21.20;57.10;;;;;;5069440;28;20089;-61
2021/05/18 17:41:22;;;;;;;176.30;17.75;;;21.10;56.90;;;;;;5065852;28;20032;-61
2021/05/18 17:43:49;;;;;;;206.82;18.17;;;21.00;56.90;;;;;;5045376;28;20029;-61